sensor_id;sensor_type;location;lat;lon;timestamp;P1;durP1;ratioP1;P2;durP2;ratioP2
44120;SDS011;29783;52.504;13.478;2022-10-19T00:00:46;7.38;;;2.00;;
44120;SDS011;29783;52.504;13.478;2022-10-19T00:03:12;15.18;;;2.58;;
44120;SDS011;29783;52.504;13.478;2022-10-19T00:05:37;16.60;;;2.60;;
44120;SDS011;29783;52.504;13.478;2022-10-19T00:08:03;10.50;;;2.40;;
44120;SDS011;29783;52.504;13.478;2022-10-19T00:10:29;15.68;;;2.45;;
44120;SDS011;29783;52.504;13.478;2022-10-19T00:12:56;14.63;;;1.77;;
44120;SDS011;29783;52.504;13.478;2022-10-19T00:15:22;7.25;;;2.10;;
44120;SDS011;29783;52.504;13.478;2022-10-19T00:17:47;11.35;;;2.00;;
44120;SDS011;29783;52.504;13.478;2022-10-19T00:20:13;8.68;;;1.83;;
44120;SDS011;29783;52.504;13.478;2022-10-19T00:22:39;13.82;;;2.00;;
44120;SDS011;29783;52.504;13.478;2022-10-19T00:25:05;9.90;;;1.90;;
44120;SDS011;29783;52.504;13.478;2022-10-19T00:27:31;12.00;;;1.90;;
44120;SDS011;29783;52.504;13.478;2022-10-19T00:29:57;14.95;;;2.22;;
44120;SDS011;29783;52.504;13.478;2022-10-19T00:32:23;10.13;;;1.60;;
44120;SDS011;29783;52.504;13.478;2022-10-19T00:34:49;10.35;;;1.95;;
44120;SDS011;29783;52.504;13.478;2022-10-19T00:37:14;9.40;;;1.60;;
44120;SDS011;29783;52.504;13.478;2022-10-19T00:39:40;11.35;;;2.17;;
44120;SDS011;29783;52.504;13.478;2022-10-19T00:42:09;9.88;;;2.03;;
44120;SDS011;29783;52.504;13.478;2022-10-19T00:47:02;8.25;;;1.65;;
44120;SDS011;29783;52.504;13.478;2022-10-19T00:49:32;11.00;;;1.95;;
44120;SDS011;29783;52.504;13.478;2022-10-19T00:52:07;10.40;;;1.45;;
44120;SDS011;29783;52.504;13.478;2022-10-19T00:57:03;7.85;;;2.10;;
44120;SDS011;29783;52.504;13.478;2022-10-19T00:59:30;12.48;;;2.00;;
44120;SDS011;29783;52.504;13.478;2022-10-19T01:01:57;11.63;;;1.98;;
44120;SDS011;29783;52.504;13.478;2022-10-19T01:04:24;3.50;;;1.15;;
44120;SDS011;29783;52.504;13.478;2022-10-19T01:06:51;7.55;;;1.70;;
44120;SDS011;29783;52.504;13.478;2022-10-19T01:09:17;8.32;;;1.50;;
44120;SDS011;29783;52.504;13.478;2022-10-19T01:26:06;11.90;;;1.00;;
44120;SDS011;29783;52.504;13.478;2022-10-19T01:33:49;9.63;;;1.67;;
44120;SDS011;29783;52.504;13.478;2022-10-19T01:39:18;7.07;;;1.20;;
44120;SDS011;29783;52.504;13.478;2022-10-19T01:41:59;7.03;;;1.30;;
44120;SDS011;29783;52.504;13.478;2022-10-19T01:44:33;7.28;;;1.27;;
44120;SDS011;29783;52.504;13.478;2022-10-19T01:50:07;13.00;;;1.42;;
44120;SDS011;29783;52.504;13.478;2022-10-19T01:52:37;5.90;;;1.00;;
44120;SDS011;29783;52.504;13.478;2022-10-19T01:55:06;6.38;;;1.10;;
44120;SDS011;29783;52.504;13.478;2022-10-19T01:57:36;6.82;;;1.10;;
44120;SDS011;29783;52.504;13.478;2022-10-19T02:00:23;5.70;;;1.90;;
44120;SDS011;29783;52.504;13.478;2022-10-19T02:02:51;3.78;;;1.55;;
44120;SDS011;29783;52.504;13.478;2022-10-19T02:05:20;3.17;;;0.90;;
44120;SDS011;29783;52.504;13.478;2022-10-19T02:07:53;10.73;;;1.25;;
44120;SDS011;29783;52.504;13.478;2022-10-19T02:10:23;6.95;;;1.50;;
44120;SDS011;29783;52.504;13.478;2022-10-19T02:12:50;8.98;;;1.77;;
44120;SDS011;29783;52.504;13.478;2022-10-19T02:15:18;5.18;;;1.30;;
44120;SDS011;29783;52.504;13.478;2022-10-19T02:17:47;4.40;;;1.15;;
44120;SDS011;29783;52.504;13.478;2022-10-19T02:20:16;11.80;;;2.10;;
44120;SDS011;29783;52.504;13.478;2022-10-19T02:22:43;6.55;;;1.38;;
44120;SDS011;29783;52.504;13.478;2022-10-19T02:25:09;8.00;;;1.65;;
44120;SDS011;29783;52.504;13.478;2022-10-19T02:27:37;7.53;;;1.40;;
44120;SDS011;29783;52.504;13.478;2022-10-19T02:30:06;8.25;;;2.00;;
44120;SDS011;29783;52.504;13.478;2022-10-19T02:32:33;9.82;;;1.65;;
44120;SDS011;29783;52.504;13.478;2022-10-19T02:35:03;10.70;;;1.60;;
44120;SDS011;29783;52.504;13.478;2022-10-19T02:37:29;10.15;;;1.70;;
44120;SDS011;29783;52.504;13.478;2022-10-19T02:39:55;13.93;;;1.58;;
44120;SDS011;29783;52.504;13.478;2022-10-19T02:42:24;8.65;;;0.88;;
44120;SDS011;29783;52.504;13.478;2022-10-19T02:45:01;9.77;;;1.42;;
44120;SDS011;29783;52.504;13.478;2022-10-19T02:47:35;9.18;;;1.25;;
44120;SDS011;29783;52.504;13.478;2022-10-19T02:50:05;13.88;;;1.70;;
44120;SDS011;29783;52.504;13.478;2022-10-19T02:52:31;6.22;;;1.30;;
44120;SDS011;29783;52.504;13.478;2022-10-19T02:54:57;7.80;;;1.35;;
44120;SDS011;29783;52.504;13.478;2022-10-19T02:57:24;8.73;;;1.40;;
44120;SDS011;29783;52.504;13.478;2022-10-19T02:59:50;10.18;;;1.55;;
44120;SDS011;29783;52.504;13.478;2022-10-19T03:02:16;8.25;;;1.48;;
44120;SDS011;29783;52.504;13.478;2022-10-19T03:04:43;8.45;;;1.00;;
44120;SDS011;29783;52.504;13.478;2022-10-19T03:07:11;9.40;;;1.50;;
44120;SDS011;29783;52.504;13.478;2022-10-19T03:09:39;6.38;;;1.50;;
44120;SDS011;29783;52.504;13.478;2022-10-19T03:12:05;10.35;;;1.45;;
44120;SDS011;29783;52.504;13.478;2022-10-19T03:14:30;12.80;;;1.90;;
44120;SDS011;29783;52.504;13.478;2022-10-19T03:16:56;6.05;;;1.10;;
44120;SDS011;29783;52.504;13.478;2022-10-19T03:19:22;7.70;;;1.65;;
44120;SDS011;29783;52.504;13.478;2022-10-19T03:21:48;12.48;;;1.58;;
44120;SDS011;29783;52.504;13.478;2022-10-19T03:24:14;12.18;;;1.13;;
44120;SDS011;29783;52.504;13.478;2022-10-19T03:26:40;7.00;;;1.35;;
44120;SDS011;29783;52.504;13.478;2022-10-19T03:29:06;7.80;;;1.50;;
44120;SDS011;29783;52.504;13.478;2022-10-19T03:31:31;7.15;;;1.20;;
44120;SDS011;29783;52.504;13.478;2022-10-19T03:33:57;3.80;;;1.00;;
44120;SDS011;29783;52.504;13.478;2022-10-19T03:36:27;13.15;;;1.40;;
44120;SDS011;29783;52.504;13.478;2022-10-19T03:38:55;11.02;;;1.40;;
44120;SDS011;29783;52.504;13.478;2022-10-19T03:41:22;9.23;;;1.55;;
44120;SDS011;29783;52.504;13.478;2022-10-19T03:43:51;10.23;;;1.50;;
44120;SDS011;29783;52.504;13.478;2022-10-19T03:46:17;4.30;;;0.90;;
44120;SDS011;29783;52.504;13.478;2022-10-19T03:48:44;6.75;;;0.90;;
44120;SDS011;29783;52.504;13.478;2022-10-19T03:51:11;7.97;;;1.25;;
44120;SDS011;29783;52.504;13.478;2022-10-19T03:53:39;3.67;;;0.95;;
44120;SDS011;29783;52.504;13.478;2022-10-19T03:56:12;5.82;;;0.88;;
44120;SDS011;29783;52.504;13.478;2022-10-19T03:58:41;8.30;;;1.20;;
44120;SDS011;29783;52.504;13.478;2022-10-19T04:01:09;5.82;;;0.80;;
44120;SDS011;29783;52.504;13.478;2022-10-19T04:03:38;4.95;;;0.95;;
44120;SDS011;29783;52.504;13.478;2022-10-19T04:06:05;4.85;;;1.15;;
44120;SDS011;29783;52.504;13.478;2022-10-19T04:08:34;7.53;;;1.10;;
44120;SDS011;29783;52.504;13.478;2022-10-19T04:11:01;6.22;;;0.88;;
44120;SDS011;29783;52.504;13.478;2022-10-19T04:13:31;3.80;;;0.70;;
44120;SDS011;29783;52.504;13.478;2022-10-19T04:15:57;7.22;;;1.13;;
44120;SDS011;29783;52.504;13.478;2022-10-19T04:18:23;2.67;;;0.90;;
44120;SDS011;29783;52.504;13.478;2022-10-19T04:20:56;11.65;;;1.08;;
44120;SDS011;29783;52.504;13.478;2022-10-19T04:23:22;3.30;;;0.57;;
44120;SDS011;29783;52.504;13.478;2022-10-19T04:25:48;11.35;;;0.90;;
44120;SDS011;29783;52.504;13.478;2022-10-19T04:28:14;7.40;;;1.20;;
44120;SDS011;29783;52.504;13.478;2022-10-19T04:30:40;8.52;;;0.98;;
44120;SDS011;29783;52.504;13.478;2022-10-19T04:33:06;10.50;;;1.30;;
44120;SDS011;29783;52.504;13.478;2022-10-19T04:35:32;10.73;;;1.20;;
44120;SDS011;29783;52.504;13.478;2022-10-19T04:37:58;5.85;;;1.10;;
44120;SDS011;29783;52.504;13.478;2022-10-19T04:40:24;8.02;;;1.00;;
44120;SDS011;29783;52.504;13.478;2022-10-19T04:42:50;11.90;;;1.50;;
44120;SDS011;29783;52.504;13.478;2022-10-19T04:45:16;4.32;;;0.90;;
44120;SDS011;29783;52.504;13.478;2022-10-19T04:47:42;7.68;;;1.30;;
44120;SDS011;29783;52.504;13.478;2022-10-19T04:50:07;3.63;;;0.93;;
44120;SDS011;29783;52.504;13.478;2022-10-19T04:52:33;9.18;;;1.58;;
44120;SDS011;29783;52.504;13.478;2022-10-19T04:55:00;7.95;;;1.17;;
44120;SDS011;29783;52.504;13.478;2022-10-19T04:57:26;5.15;;;1.08;;
44120;SDS011;29783;52.504;13.478;2022-10-19T04:59:52;3.42;;;0.70;;
44120;SDS011;29783;52.504;13.478;2022-10-19T05:02:18;7.53;;;1.40;;
44120;SDS011;29783;52.504;13.478;2022-10-19T05:04:43;5.82;;;1.10;;
44120;SDS011;29783;52.504;13.478;2022-10-19T05:07:12;5.32;;;1.25;;
44120;SDS011;29783;52.504;13.478;2022-10-19T05:09:39;7.72;;;1.13;;
44120;SDS011;29783;52.504;13.478;2022-10-19T05:12:05;7.68;;;1.73;;
44120;SDS011;29783;52.504;13.478;2022-10-19T05:14:34;6.03;;;1.40;;
44120;SDS011;29783;52.504;13.478;2022-10-19T05:17:00;5.00;;;1.30;;
44120;SDS011;29783;52.504;13.478;2022-10-19T05:19:27;11.68;;;1.45;;
44120;SDS011;29783;52.504;13.478;2022-10-19T05:21:52;6.03;;;1.05;;
44120;SDS011;29783;52.504;13.478;2022-10-19T05:24:18;12.50;;;1.30;;
44120;SDS011;29783;52.504;13.478;2022-10-19T05:26:44;6.30;;;0.90;;
44120;SDS011;29783;52.504;13.478;2022-10-19T05:29:11;12.82;;;1.40;;
44120;SDS011;29783;52.504;13.478;2022-10-19T05:31:37;9.63;;;1.45;;
44120;SDS011;29783;52.504;13.478;2022-10-19T05:34:03;6.57;;;0.95;;
44120;SDS011;29783;52.504;13.478;2022-10-19T05:36:32;6.78;;;1.00;;
44120;SDS011;29783;52.504;13.478;2022-10-19T05:39:02;5.53;;;1.00;;
44120;SDS011;29783;52.504;13.478;2022-10-19T05:41:32;5.25;;;1.10;;
44120;SDS011;29783;52.504;13.478;2022-10-19T05:43:59;5.30;;;1.15;;
44120;SDS011;29783;52.504;13.478;2022-10-19T05:46:26;6.03;;;1.15;;
44120;SDS011;29783;52.504;13.478;2022-10-19T05:48:55;12.15;;;1.23;;
44120;SDS011;29783;52.504;13.478;2022-10-19T05:51:22;5.70;;;1.25;;
44120;SDS011;29783;52.504;13.478;2022-10-19T05:53:49;7.57;;;1.15;;
44120;SDS011;29783;52.504;13.478;2022-10-19T05:56:21;7.35;;;1.27;;
44120;SDS011;29783;52.504;13.478;2022-10-19T05:58:49;9.52;;;1.30;;
44120;SDS011;29783;52.504;13.478;2022-10-19T06:01:15;5.13;;;0.90;;
44120;SDS011;29783;52.504;13.478;2022-10-19T06:03:46;13.90;;;1.20;;
44120;SDS011;29783;52.504;13.478;2022-10-19T06:06:15;6.22;;;1.40;;
44120;SDS011;29783;52.504;13.478;2022-10-19T06:08:40;8.18;;;1.20;;
44120;SDS011;29783;52.504;13.478;2022-10-19T06:13:34;4.95;;;1.05;;
44120;SDS011;29783;52.504;13.478;2022-10-19T06:16:01;5.30;;;1.30;;
44120;SDS011;29783;52.504;13.478;2022-10-19T06:18:27;7.95;;;1.10;;
44120;SDS011;29783;52.504;13.478;2022-10-19T06:20:54;5.72;;;1.00;;
44120;SDS011;29783;52.504;13.478;2022-10-19T06:23:20;7.38;;;1.08;;
44120;SDS011;29783;52.504;13.478;2022-10-19T06:25:45;5.18;;;1.17;;
44120;SDS011;29783;52.504;13.478;2022-10-19T06:28:11;10.98;;;1.45;;
44120;SDS011;29783;52.504;13.478;2022-10-19T06:30:40;6.68;;;0.90;;
44120;SDS011;29783;52.504;13.478;2022-10-19T06:33:06;7.07;;;1.00;;
44120;SDS011;29783;52.504;13.478;2022-10-19T06:35:32;10.60;;;1.17;;
44120;SDS011;29783;52.504;13.478;2022-10-19T06:37:58;9.25;;;1.35;;
44120;SDS011;29783;52.504;13.478;2022-10-19T06:40:24;6.60;;;1.08;;
44120;SDS011;29783;52.504;13.478;2022-10-19T06:42:50;9.18;;;1.40;;
44120;SDS011;29783;52.504;13.478;2022-10-19T06:45:16;8.52;;;1.00;;
44120;SDS011;29783;52.504;13.478;2022-10-19T06:47:43;5.72;;;1.38;;
44120;SDS011;29783;52.504;13.478;2022-10-19T06:50:09;6.25;;;1.38;;
44120;SDS011;29783;52.504;13.478;2022-10-19T06:52:35;4.30;;;1.00;;
44120;SDS011;29783;52.504;13.478;2022-10-19T06:55:01;10.43;;;1.02;;
44120;SDS011;29783;52.504;13.478;2022-10-19T06:57:27;5.72;;;0.88;;
44120;SDS011;29783;52.504;13.478;2022-10-19T06:59:54;5.43;;;1.00;;
44120;SDS011;29783;52.504;13.478;2022-10-19T07:02:20;5.38;;;1.15;;
44120;SDS011;29783;52.504;13.478;2022-10-19T07:04:45;12.27;;;1.10;;
44120;SDS011;29783;52.504;13.478;2022-10-19T07:07:11;8.85;;;1.30;;
44120;SDS011;29783;52.504;13.478;2022-10-19T07:09:37;5.05;;;1.15;;
44120;SDS011;29783;52.504;13.478;2022-10-19T07:12:03;7.43;;;0.98;;
44120;SDS011;29783;52.504;13.478;2022-10-19T07:14:29;12.68;;;1.20;;
44120;SDS011;29783;52.504;13.478;2022-10-19T07:16:57;8.63;;;0.95;;
44120;SDS011;29783;52.504;13.478;2022-10-19T07:19:26;14.35;;;1.50;;
44120;SDS011;29783;52.504;13.478;2022-10-19T07:21:52;6.55;;;1.20;;
44120;SDS011;29783;52.504;13.478;2022-10-19T07:24:18;10.52;;;1.00;;
44120;SDS011;29783;52.504;13.478;2022-10-19T07:26:44;7.85;;;1.45;;
44120;SDS011;29783;52.504;13.478;2022-10-19T07:29:10;5.97;;;1.20;;
44120;SDS011;29783;52.504;13.478;2022-10-19T07:31:36;4.45;;;0.80;;
44120;SDS011;29783;52.504;13.478;2022-10-19T07:34:03;5.97;;;1.30;;
44120;SDS011;29783;52.504;13.478;2022-10-19T07:36:30;6.43;;;1.15;;
44120;SDS011;29783;52.504;13.478;2022-10-19T07:38:57;6.55;;;1.13;;
44120;SDS011;29783;52.504;13.478;2022-10-19T07:41:25;5.95;;;1.52;;
44120;SDS011;29783;52.504;13.478;2022-10-19T07:43:51;7.47;;;1.20;;
44120;SDS011;29783;52.504;13.478;2022-10-19T07:46:22;9.13;;;0.98;;
44120;SDS011;29783;52.504;13.478;2022-10-19T07:48:49;3.95;;;0.98;;
44120;SDS011;29783;52.504;13.478;2022-10-19T07:51:16;6.18;;;1.02;;
44120;SDS011;29783;52.504;13.478;2022-10-19T07:53:43;5.13;;;0.88;;
44120;SDS011;29783;52.504;13.478;2022-10-19T07:56:11;5.65;;;1.23;;
44120;SDS011;29783;52.504;13.478;2022-10-19T07:58:38;6.05;;;1.17;;
44120;SDS011;29783;52.504;13.478;2022-10-19T08:01:09;4.00;;;1.00;;
44120;SDS011;29783;52.504;13.478;2022-10-19T08:03:39;3.45;;;1.35;;
44120;SDS011;29783;52.504;13.478;2022-10-19T08:06:07;9.68;;;1.35;;
44120;SDS011;29783;52.504;13.478;2022-10-19T08:08:35;3.20;;;1.08;;
44120;SDS011;29783;52.504;13.478;2022-10-19T08:11:11;5.18;;;1.10;;
44120;SDS011;29783;52.504;13.478;2022-10-19T08:13:39;5.40;;;1.20;;
44120;SDS011;29783;52.504;13.478;2022-10-19T08:16:17;7.57;;;1.15;;
44120;SDS011;29783;52.504;13.478;2022-10-19T08:18:57;7.57;;;1.33;;
44120;SDS011;29783;52.504;13.478;2022-10-19T08:21:31;5.78;;;1.20;;
44120;SDS011;29783;52.504;13.478;2022-10-19T08:23:57;6.07;;;1.20;;
44120;SDS011;29783;52.504;13.478;2022-10-19T08:26:24;6.28;;;1.02;;
44120;SDS011;29783;52.504;13.478;2022-10-19T08:28:52;6.72;;;1.00;;
44120;SDS011;29783;52.504;13.478;2022-10-19T08:31:22;7.00;;;1.20;;
44120;SDS011;29783;52.504;13.478;2022-10-19T08:33:51;8.52;;;1.08;;
44120;SDS011;29783;52.504;13.478;2022-10-19T08:36:17;8.32;;;1.38;;
44120;SDS011;29783;52.504;13.478;2022-10-19T08:38:47;5.22;;;1.13;;
44120;SDS011;29783;52.504;13.478;2022-10-19T08:41:21;13.95;;;2.25;;
44120;SDS011;29783;52.504;13.478;2022-10-19T08:46:40;6.57;;;1.40;;
44120;SDS011;29783;52.504;13.478;2022-10-19T08:49:11;11.05;;;1.30;;
44120;SDS011;29783;52.504;13.478;2022-10-19T08:51:43;10.57;;;1.38;;
44120;SDS011;29783;52.504;13.478;2022-10-19T08:54:15;10.10;;;1.70;;
44120;SDS011;29783;52.504;13.478;2022-10-19T08:56:45;6.18;;;1.20;;
44120;SDS011;29783;52.504;13.478;2022-10-19T09:04:41;5.80;;;1.20;;
44120;SDS011;29783;52.504;13.478;2022-10-19T09:07:20;9.02;;;1.83;;
44120;SDS011;29783;52.504;13.478;2022-10-19T09:10:03;6.18;;;1.30;;
44120;SDS011;29783;52.504;13.478;2022-10-19T09:15:17;15.43;;;1.55;;
44120;SDS011;29783;52.504;13.478;2022-10-19T09:17:46;7.25;;;1.27;;
44120;SDS011;29783;52.504;13.478;2022-10-19T09:22:50;6.10;;;1.23;;
44120;SDS011;29783;52.504;13.478;2022-10-19T09:25:42;5.07;;;1.20;;
44120;SDS011;29783;52.504;13.478;2022-10-19T09:28:15;6.18;;;1.02;;
44120;SDS011;29783;52.504;13.478;2022-10-19T09:30:54;6.47;;;1.25;;
44120;SDS011;29783;52.504;13.478;2022-10-19T09:33:26;8.98;;;1.27;;
44120;SDS011;29783;52.504;13.478;2022-10-19T09:35:57;3.97;;;1.02;;
44120;SDS011;29783;52.504;13.478;2022-10-19T09:38:26;6.72;;;1.27;;
44120;SDS011;29783;52.504;13.478;2022-10-19T09:40:52;7.13;;;1.30;;
44120;SDS011;29783;52.504;13.478;2022-10-19T09:43:20;7.78;;;1.00;;
44120;SDS011;29783;52.504;13.478;2022-10-19T09:48:27;4.68;;;1.10;;
44120;SDS011;29783;52.504;13.478;2022-10-19T09:50:58;3.58;;;0.88;;
44120;SDS011;29783;52.504;13.478;2022-10-19T09:53:25;4.65;;;0.80;;
44120;SDS011;29783;52.504;13.478;2022-10-19T09:58:24;5.40;;;1.10;;
44120;SDS011;29783;52.504;13.478;2022-10-19T10:00:54;3.60;;;0.95;;
44120;SDS011;29783;52.504;13.478;2022-10-19T10:05:47;3.50;;;0.82;;
44120;SDS011;29783;52.504;13.478;2022-10-19T10:08:14;4.50;;;0.65;;
44120;SDS011;29783;52.504;13.478;2022-10-19T10:10:44;3.83;;;0.60;;
44120;SDS011;29783;52.504;13.478;2022-10-19T10:13:17;10.45;;;1.02;;
44120;SDS011;29783;52.504;13.478;2022-10-19T10:15:50;4.97;;;0.70;;
44120;SDS011;29783;52.504;13.478;2022-10-19T10:18:21;5.97;;;0.68;;
44120;SDS011;29783;52.504;13.478;2022-10-19T10:20:59;3.42;;;0.70;;
44120;SDS011;29783;52.504;13.478;2022-10-19T10:23:35;2.05;;;0.63;;
44120;SDS011;29783;52.504;13.478;2022-10-19T10:26:02;3.83;;;1.00;;
44120;SDS011;29783;52.504;13.478;2022-10-19T10:28:30;6.97;;;0.60;;
44120;SDS011;29783;52.504;13.478;2022-10-19T10:31:04;2.67;;;0.40;;
44120;SDS011;29783;52.504;13.478;2022-10-19T10:33:32;1.70;;;0.50;;
44120;SDS011;29783;52.504;13.478;2022-10-19T10:36:02;1.67;;;0.50;;
44120;SDS011;29783;52.504;13.478;2022-10-19T10:38:44;3.08;;;0.50;;
44120;SDS011;29783;52.504;13.478;2022-10-19T10:41:15;0.77;;;0.40;;
44120;SDS011;29783;52.504;13.478;2022-10-19T10:43:59;3.47;;;0.43;;
44120;SDS011;29783;52.504;13.478;2022-10-19T10:46:50;4.72;;;0.47;;
44120;SDS011;29783;52.504;13.478;2022-10-19T10:49:22;2.20;;;0.55;;
44120;SDS011;29783;52.504;13.478;2022-10-19T10:51:54;2.10;;;0.40;;
44120;SDS011;29783;52.504;13.478;2022-10-19T10:54:23;3.10;;;0.40;;
44120;SDS011;29783;52.504;13.478;2022-10-19T11:02:53;6.80;;;0.57;;
44120;SDS011;29783;52.504;13.478;2022-10-19T11:06:10;2.42;;;0.43;;
44120;SDS011;29783;52.504;13.478;2022-10-19T11:08:21;2.35;;;0.40;;
44120;SDS011;29783;52.504;13.478;2022-10-19T11:11:00;1.88;;;0.55;;
44120;SDS011;29783;52.504;13.478;2022-10-19T11:16:42;4.75;;;0.80;;
44120;SDS011;29783;52.504;13.478;2022-10-19T11:19:12;2.80;;;0.47;;
44120;SDS011;29783;52.504;13.478;2022-10-19T11:24:17;4.93;;;0.60;;
44120;SDS011;29783;52.504;13.478;2022-10-19T11:27:28;4.65;;;0.47;;
44120;SDS011;29783;52.504;13.478;2022-10-19T11:30:12;5.85;;;0.75;;
44120;SDS011;29783;52.504;13.478;2022-10-19T11:43:41;4.03;;;0.80;;
44120;SDS011;29783;52.504;13.478;2022-10-19T11:49:13;4.10;;;0.50;;
44120;SDS011;29783;52.504;13.478;2022-10-19T12:16:03;4.00;;;0.88;;
44120;SDS011;29783;52.504;13.478;2022-10-19T12:21:03;1.92;;;0.30;;
44120;SDS011;29783;52.504;13.478;2022-10-19T12:23:39;3.97;;;0.68;;
44120;SDS011;29783;52.504;13.478;2022-10-19T12:26:10;2.83;;;0.75;;
44120;SDS011;29783;52.504;13.478;2022-10-19T12:28:41;1.60;;;0.63;;
44120;SDS011;29783;52.504;13.478;2022-10-19T12:31:12;2.35;;;0.40;;
44120;SDS011;29783;52.504;13.478;2022-10-19T12:33:44;1.90;;;0.50;;
44120;SDS011;29783;52.504;13.478;2022-10-19T12:36:28;2.08;;;0.60;;
44120;SDS011;29783;52.504;13.478;2022-10-19T12:41:46;2.03;;;0.68;;
44120;SDS011;29783;52.504;13.478;2022-10-19T12:46:54;3.00;;;0.65;;
44120;SDS011;29783;52.504;13.478;2022-10-19T12:51:50;2.97;;;0.70;;
44120;SDS011;29783;52.504;13.478;2022-10-19T12:54:20;1.75;;;0.60;;
44120;SDS011;29783;52.504;13.478;2022-10-19T12:56:53;2.92;;;0.82;;
44120;SDS011;29783;52.504;13.478;2022-10-19T12:59:42;6.75;;;0.95;;
44120;SDS011;29783;52.504;13.478;2022-10-19T13:02:15;9.38;;;0.90;;
44120;SDS011;29783;52.504;13.478;2022-10-19T13:04:51;3.38;;;0.93;;
44120;SDS011;29783;52.504;13.478;2022-10-19T13:07:18;2.17;;;0.60;;
44120;SDS011;29783;52.504;13.478;2022-10-19T13:12:44;5.63;;;0.75;;
44120;SDS011;29783;52.504;13.478;2022-10-19T13:18:14;5.13;;;0.75;;
44120;SDS011;29783;52.504;13.478;2022-10-19T13:21:00;2.90;;;0.73;;
44120;SDS011;29783;52.504;13.478;2022-10-19T13:28:57;4.90;;;0.55;;
44120;SDS011;29783;52.504;13.478;2022-10-19T13:31:24;1.40;;;0.57;;
44120;SDS011;29783;52.504;13.478;2022-10-19T13:34:35;2.30;;;0.70;;
44120;SDS011;29783;52.504;13.478;2022-10-19T13:37:02;2.13;;;0.60;;
44120;SDS011;29783;52.504;13.478;2022-10-19T13:39:28;2.50;;;0.60;;
44120;SDS011;29783;52.504;13.478;2022-10-19T13:41:54;5.78;;;0.73;;
44120;SDS011;29783;52.504;13.478;2022-10-19T13:44:25;4.28;;;0.60;;
44120;SDS011;29783;52.504;13.478;2022-10-19T13:47:15;1.95;;;0.70;;
44120;SDS011;29783;52.504;13.478;2022-10-19T14:01:48;6.30;;;2.75;;
44120;SDS011;29783;52.504;13.478;2022-10-19T14:07:16;4.53;;;0.93;;
44120;SDS011;29783;52.504;13.478;2022-10-19T14:10:35;2.97;;;1.02;;
44120;SDS011;29783;52.504;13.478;2022-10-19T14:12:43;2.80;;;0.70;;
44120;SDS011;29783;52.504;13.478;2022-10-19T14:15:20;3.65;;;0.85;;
44120;SDS011;29783;52.504;13.478;2022-10-19T14:17:48;3.03;;;0.50;;
44120;SDS011;29783;52.504;13.478;2022-10-19T14:25:48;2.45;;;0.60;;
44120;SDS011;29783;52.504;13.478;2022-10-19T14:28:22;3.83;;;0.60;;
44120;SDS011;29783;52.504;13.478;2022-10-19T14:33:22;1.75;;;0.50;;
44120;SDS011;29783;52.504;13.478;2022-10-19T14:35:50;4.40;;;0.52;;
44120;SDS011;29783;52.504;13.478;2022-10-19T14:41:44;1.95;;;0.60;;
44120;SDS011;29783;52.504;13.478;2022-10-19T14:47:24;11.75;;;0.65;;
44120;SDS011;29783;52.504;13.478;2022-10-19T14:49:57;1.55;;;0.70;;
44120;SDS011;29783;52.504;13.478;2022-10-19T14:54:59;3.63;;;0.68;;
44120;SDS011;29783;52.504;13.478;2022-10-19T14:57:32;3.35;;;0.70;;
44120;SDS011;29783;52.504;13.478;2022-10-19T15:00:01;1.98;;;0.68;;
44120;SDS011;29783;52.504;13.478;2022-10-19T15:02:41;3.63;;;0.80;;
44120;SDS011;29783;52.504;13.478;2022-10-19T15:05:16;2.20;;;0.80;;
44120;SDS011;29783;52.504;13.478;2022-10-19T15:07:51;2.85;;;0.60;;
44120;SDS011;29783;52.504;13.478;2022-10-19T15:10:28;16.80;;;1.20;;
44120;SDS011;29783;52.504;13.478;2022-10-19T15:13:12;1.55;;;0.55;;
44120;SDS011;29783;52.504;13.478;2022-10-19T15:15:49;3.10;;;0.75;;
44120;SDS011;29783;52.504;13.478;2022-10-19T15:18:17;10.65;;;0.60;;
44120;SDS011;29783;52.504;13.478;2022-10-19T15:20:43;3.80;;;0.70;;
44120;SDS011;29783;52.504;13.478;2022-10-19T15:26:13;2.72;;;0.60;;
44120;SDS011;29783;52.504;13.478;2022-10-19T15:28:49;3.25;;;0.80;;
44120;SDS011;29783;52.504;13.478;2022-10-19T15:31:19;3.40;;;0.93;;
44120;SDS011;29783;52.504;13.478;2022-10-19T15:33:53;5.55;;;0.57;;
44120;SDS011;29783;52.504;13.478;2022-10-19T15:36:29;4.03;;;0.70;;
44120;SDS011;29783;52.504;13.478;2022-10-19T15:41:28;7.18;;;1.00;;
44120;SDS011;29783;52.504;13.478;2022-10-19T15:43:57;7.10;;;0.45;;
44120;SDS011;29783;52.504;13.478;2022-10-19T15:46:32;1.83;;;0.63;;
44120;SDS011;29783;52.504;13.478;2022-10-19T15:49:04;3.97;;;0.70;;
44120;SDS011;29783;52.504;13.478;2022-10-19T15:52:13;7.00;;;0.98;;
44120;SDS011;29783;52.504;13.478;2022-10-19T15:54:47;2.38;;;1.10;;
44120;SDS011;29783;52.504;13.478;2022-10-19T15:57:21;6.35;;;1.02;;
44120;SDS011;29783;52.504;13.478;2022-10-19T15:59:56;3.65;;;0.70;;
44120;SDS011;29783;52.504;13.478;2022-10-19T16:02:24;6.15;;;0.95;;
44120;SDS011;29783;52.504;13.478;2022-10-19T16:04:51;4.90;;;1.08;;
44120;SDS011;29783;52.504;13.478;2022-10-19T16:07:23;7.32;;;0.90;;
44120;SDS011;29783;52.504;13.478;2022-10-19T16:09:51;6.43;;;0.88;;
44120;SDS011;29783;52.504;13.478;2022-10-19T16:12:18;3.95;;;1.20;;
44120;SDS011;29783;52.504;13.478;2022-10-19T16:14:44;5.93;;;1.50;;
44120;SDS011;29783;52.504;13.478;2022-10-19T16:17:12;2.97;;;1.15;;
44120;SDS011;29783;52.504;13.478;2022-10-19T16:19:39;4.53;;;1.50;;
44120;SDS011;29783;52.504;13.478;2022-10-19T16:22:05;9.70;;;1.42;;
44120;SDS011;29783;52.504;13.478;2022-10-19T16:24:31;4.22;;;1.25;;
44120;SDS011;29783;52.504;13.478;2022-10-19T16:26:57;1.48;;;1.00;;
44120;SDS011;29783;52.504;13.478;2022-10-19T16:29:23;3.67;;;1.20;;
44120;SDS011;29783;52.504;13.478;2022-10-19T16:31:49;4.18;;;1.30;;
44120;SDS011;29783;52.504;13.478;2022-10-19T16:34:15;7.22;;;0.90;;
44120;SDS011;29783;52.504;13.478;2022-10-19T16:36:44;6.05;;;1.13;;
44120;SDS011;29783;52.504;13.478;2022-10-19T16:39:10;7.80;;;1.17;;
44120;SDS011;29783;52.504;13.478;2022-10-19T16:41:36;4.20;;;1.55;;
44120;SDS011;29783;52.504;13.478;2022-10-19T16:44:02;3.85;;;1.77;;
44120;SDS011;29783;52.504;13.478;2022-10-19T16:46:28;4.05;;;1.52;;
44120;SDS011;29783;52.504;13.478;2022-10-19T16:48:56;3.80;;;1.75;;
44120;SDS011;29783;52.504;13.478;2022-10-19T16:51:35;6.47;;;1.90;;
44120;SDS011;29783;52.504;13.478;2022-10-19T16:54:05;5.50;;;1.80;;
44120;SDS011;29783;52.504;13.478;2022-10-19T16:56:35;3.40;;;1.73;;
44120;SDS011;29783;52.504;13.478;2022-10-19T16:59:03;2.72;;;1.50;;
44120;SDS011;29783;52.504;13.478;2022-10-19T17:01:30;5.78;;;1.70;;
44120;SDS011;29783;52.504;13.478;2022-10-19T17:03:58;7.45;;;1.52;;
44120;SDS011;29783;52.504;13.478;2022-10-19T17:06:24;7.80;;;1.90;;
44120;SDS011;29783;52.504;13.478;2022-10-19T17:08:54;5.97;;;2.38;;
44120;SDS011;29783;52.504;13.478;2022-10-19T17:13:48;4.28;;;2.05;;
44120;SDS011;29783;52.504;13.478;2022-10-19T17:16:15;6.15;;;2.08;;
44120;SDS011;29783;52.504;13.478;2022-10-19T17:18:47;3.55;;;2.00;;
44120;SDS011;29783;52.504;13.478;2022-10-19T17:21:18;10.23;;;3.47;;
44120;SDS011;29783;52.504;13.478;2022-10-19T17:23:46;5.10;;;2.03;;
44120;SDS011;29783;52.504;13.478;2022-10-19T17:26:14;5.07;;;2.63;;
44120;SDS011;29783;52.504;13.478;2022-10-19T17:28:40;13.32;;;2.80;;
44120;SDS011;29783;52.504;13.478;2022-10-19T17:31:10;9.20;;;4.30;;
44120;SDS011;29783;52.504;13.478;2022-10-19T17:33:40;12.77;;;6.47;;